createdAt,value
2019-05-25T00:00:58.451Z,76.23
2019-05-25T00:04:05.293Z,76.71
2019-05-25T00:07:11.675Z,76.60
2019-05-25T00:10:18.167Z,76.96
2019-05-25T00:13:24.519Z,77.21
2019-05-25T00:16:31.362Z,76.86
2019-05-25T00:19:37.741Z,77.08
2019-05-25T00:22:44.048Z,77.32
2019-05-25T00:25:50.425Z,77.52
2019-05-25T00:28:56.837Z,76.99
2019-05-25T00:32:03.263Z,76.99
2019-05-25T00:35:10.653Z,77.41
2019-05-25T00:38:17.083Z,78.12
2019-05-25T00:41:23.494Z,77.83
2019-05-25T00:44:29.854Z,78.07
2019-05-25T00:47:36.210Z,77.80
2019-05-25T00:50:42.556Z,78.12
2019-05-25T00:53:49.393Z,77.68
2019-05-25T00:56:55.839Z,78.04
2019-05-25T01:00:02.196Z,78.31
2019-05-25T01:03:10.491Z,78.24
2019-05-25T01:06:17.255Z,78.23
2019-05-25T01:09:23.634Z,78.09
2019-05-25T01:12:30.115Z,78.30
2019-05-25T01:15:36.640Z,78.40
2019-05-25T01:18:43.087Z,78.30
2019-05-25T01:21:49.545Z,78.58
2019-05-25T01:24:55.988Z,78.75
2019-05-25T01:28:02.361Z,78.51
2019-05-25T01:31:08.921Z,78.46
2019-05-25T01:34:15.344Z,78.91
2019-05-25T01:37:21.725Z,79.20
2019-05-25T01:40:28.068Z,79.04
2019-05-25T01:43:34.485Z,79.09
2019-05-25T01:46:40.846Z,78.93
2019-05-25T01:49:47.759Z,79.18
2019-05-25T01:52:54.129Z,79.19
2019-05-25T01:56:01.179Z,79.20
2019-05-25T01:59:07.526Z,79.28
2019-05-25T02:02:14.201Z,78.78
2019-05-25T02:05:20.565Z,79.04
2019-05-25T02:08:27.390Z,79.44
2019-05-25T02:11:33.783Z,79.61
2019-05-25T02:14:40.186Z,79.92
2019-05-25T02:17:46.582Z,79.41
2019-05-25T02:20:53.041Z,79.66
2019-05-25T02:23:59.791Z,79.80
2019-05-25T02:27:06.650Z,80.04
2019-05-25T02:30:13.118Z,80.34
2019-05-25T02:33:19.559Z,79.97
2019-05-25T02:36:25.962Z,80.21
2019-05-25T02:39:32.359Z,80.09
2019-05-25T02:42:38.792Z,80.18
2019-05-25T02:45:45.601Z,80.59
2019-05-25T02:48:51.989Z,80.05
2019-05-25T02:51:58.343Z,80.74
2019-05-25T02:55:05.235Z,80.51
2019-05-25T02:58:11.956Z,80.16
2019-05-25T03:01:18.293Z,80.37
2019-05-25T03:04:24.690Z,80.28
2019-05-25T03:07:30.942Z,80.40
2019-05-25T03:10:37.813Z,80.55
2019-05-25T03:13:44.565Z,80.37
2019-05-25T03:16:51.072Z,80.34
2019-05-25T03:19:57.578Z,81.18
2019-05-25T03:23:04.206Z,80.69
2019-05-25T03:26:10.570Z,80.52
2019-05-25T03:29:17.086Z,80.16
2019-05-25T03:32:23.438Z,80.83
2019-05-25T03:35:30.001Z,80.58
2019-05-25T03:38:36.327Z,80.77
2019-05-25T03:41:42.880Z,80.28
2019-05-25T03:44:49.295Z,80.58
2019-05-25T03:47:55.677Z,81.12
2019-05-25T03:51:01.945Z,81.11
2019-05-25T03:54:08.481Z,80.88
2019-05-25T03:57:14.882Z,80.88
2019-05-25T04:00:35.316Z,81.20
2019-05-25T04:03:41.653Z,80.99
2019-05-25T04:06:48.122Z,80.54
2019-05-25T04:09:54.487Z,81.00
2019-05-25T04:13:01.075Z,81.79
2019-05-25T04:16:07.419Z,80.79
2019-05-25T04:19:14.137Z,81.05
2019-05-25T04:22:20.403Z,81.46
2019-05-25T04:25:26.903Z,81.08
2019-05-25T04:28:33.183Z,81.60
2019-05-25T04:31:39.680Z,81.44
2019-05-25T04:34:46.017Z,81.70
2019-05-25T04:37:52.532Z,82.16
2019-05-25T04:40:58.979Z,81.43
2019-05-25T04:44:05.534Z,81.42
2019-05-25T04:47:26.185Z,81.49
2019-05-25T04:50:20.041Z,81.52
2019-05-25T04:53:26.506Z,81.35
2019-05-25T04:56:39.544Z,81.20
2019-05-25T04:59:41.344Z,81.77
2019-05-25T05:02:48.269Z,81.38
2019-05-25T05:05:54.645Z,81.49
2019-05-25T05:09:01.076Z,81.88
2019-05-25T05:12:08.696Z,80.71
2019-05-25T05:15:15.575Z,80.95
2019-05-25T05:18:21.998Z,81.14
2019-05-25T05:21:28.365Z,81.14
2019-05-25T05:24:34.633Z,81.00
2019-05-25T05:27:41.020Z,81.40
2019-05-25T05:30:47.411Z,80.33
2019-05-25T05:33:53.835Z,80.98
2019-05-25T05:37:00.183Z,80.95
2019-05-25T05:40:08.850Z,80.95
2019-05-25T05:43:15.209Z,80.77
2019-05-25T05:46:21.907Z,80.72
2019-05-25T05:49:28.525Z,80.34
2019-05-25T05:52:38.304Z,80.29
2019-05-25T05:55:44.719Z,80.53
2019-05-25T05:58:51.139Z,80.37
2019-05-25T06:01:57.497Z,80.14
2019-05-25T06:05:04.567Z,80.35
2019-05-25T06:08:10.921Z,80.68
2019-05-25T06:11:17.609Z,80.34
2019-05-25T06:14:23.897Z,80.32
2019-05-25T06:17:30.495Z,79.67
2019-05-25T06:20:36.800Z,79.21
2019-05-25T06:23:43.194Z,78.78
2019-05-25T06:26:49.571Z,77.82
2019-05-25T06:29:56.379Z,77.51
2019-05-25T06:33:02.642Z,76.69
2019-05-25T06:36:09.019Z,75.91
2019-05-25T06:39:17.622Z,75.95
2019-05-25T06:42:23.922Z,75.83
2019-05-25T06:45:30.312Z,76.07
2019-05-25T06:48:37.133Z,76.26
2019-05-25T06:51:43.569Z,75.93
2019-05-25T06:54:50.157Z,75.93
2019-05-25T06:57:56.528Z,76.04
2019-05-25T07:01:02.965Z,75.60
2019-05-25T07:04:09.517Z,75.58
2019-05-25T07:07:17.210Z,75.96
2019-05-25T07:10:25.534Z,75.48
2019-05-25T07:13:31.894Z,75.30
2019-05-25T07:16:38.393Z,75.25
2019-05-25T07:19:45.286Z,75.67
2019-05-25T07:22:52.475Z,75.33
2019-05-25T07:25:59.128Z,75.20
2019-05-25T07:29:05.580Z,75.11
2019-05-25T07:32:12.120Z,75.18
2019-05-25T07:35:18.542Z,75.72
2019-05-25T07:38:25.024Z,75.34
2019-05-25T07:41:33.659Z,75.61
2019-05-25T07:44:40.197Z,75.35
2019-05-25T07:47:46.529Z,75.63
2019-05-25T07:50:53.034Z,76.04
2019-05-25T07:54:00.388Z,76.03
2019-05-25T07:57:07.837Z,76.17
2019-05-25T08:00:14.403Z,76.35
2019-05-25T08:03:20.801Z,76.24
2019-05-25T08:06:27.142Z,76.09
2019-05-25T08:09:34.011Z,75.80
2019-05-25T08:12:40.279Z,75.85
2019-05-25T08:15:46.916Z,75.26
2019-05-25T08:18:53.212Z,75.25
2019-05-25T08:22:00.066Z,75.08
2019-05-25T08:25:06.657Z,75.79
2019-05-25T08:28:12.920Z,75.87
2019-05-25T08:31:19.275Z,77.30
2019-05-25T08:34:25.764Z,77.79
2019-05-25T08:37:32.281Z,76.95
2019-05-25T08:40:39.028Z,76.96
2019-05-25T08:43:47.589Z,76.32
2019-05-25T08:46:57.235Z,76.20
2019-05-25T08:50:07.592Z,76.58
2019-05-25T08:53:16.311Z,76.64
2019-05-25T08:56:22.723Z,77.58
2019-05-25T08:59:29.524Z,77.14
2019-05-25T09:02:35.947Z,77.33
2019-05-25T09:05:42.380Z,77.34
2019-05-25T09:08:48.777Z,77.35
2019-05-25T09:11:55.401Z,78.12
2019-05-25T09:15:01.740Z,77.64
2019-05-25T09:18:11.171Z,77.41
2019-05-25T09:21:17.849Z,77.17
2019-05-25T09:24:25.183Z,76.87
2019-05-25T09:27:31.516Z,76.95
2019-05-25T09:30:37.996Z,76.58
2019-05-25T09:33:44.345Z,76.04
2019-05-25T09:36:50.974Z,75.55
2019-05-25T09:39:58.280Z,75.88
2019-05-25T09:43:04.665Z,76.03
2019-05-25T09:46:11.036Z,75.90
2019-05-25T09:49:17.555Z,75.69
2019-05-25T09:52:23.924Z,75.75
2019-05-25T09:55:30.416Z,75.31
2019-05-25T09:58:36.873Z,74.51
2019-05-25T10:01:43.410Z,74.32
2019-05-25T10:04:49.751Z,74.73
2019-05-25T10:07:59.075Z,74.54
2019-05-25T10:11:05.532Z,75.21
2019-05-25T10:14:12.704Z,74.79
2019-05-25T10:17:18.981Z,74.35
2019-05-25T10:20:26.279Z,74.63
2019-05-25T10:23:32.631Z,74.55
2019-05-25T10:26:39.402Z,73.71
2019-05-25T10:29:45.914Z,73.71
2019-05-25T10:32:52.347Z,73.32
2019-05-25T10:36:01.635Z,72.52
2019-05-25T10:39:09.020Z,72.28
2019-05-25T10:42:27.510Z,71.75
2019-05-25T10:45:34.089Z,71.51
2019-05-25T10:48:40.534Z,72.28
2019-05-25T10:51:47.163Z,72.19
2019-05-25T10:54:53.507Z,72.05
2019-05-25T10:57:59.983Z,72.34
2019-05-25T11:01:06.401Z,70.44
2019-05-25T11:04:12.793Z,69.88
2019-05-25T11:07:19.553Z,68.88
2019-05-25T11:10:26.169Z,69.18
2019-05-25T11:13:33.647Z,69.18
2019-05-25T11:16:40.574Z,70.07
2019-05-25T11:19:46.944Z,69.54
2019-05-25T11:22:53.415Z,70.19
2019-05-25T11:25:59.791Z,71.17
2019-05-25T11:29:07.000Z,70.47
2019-05-25T11:32:13.452Z,70.85
2019-05-25T11:35:20.995Z,71.26
2019-05-25T11:38:27.701Z,71.06
2019-05-25T11:41:34.160Z,70.68
2019-05-25T11:44:40.516Z,71.35
2019-05-25T11:47:47.026Z,70.04
2019-05-25T11:50:53.377Z,70.24
2019-05-25T11:53:59.988Z,69.74
2019-05-25T11:57:06.271Z,69.34
2019-05-25T12:00:24.240Z,67.82
2019-05-25T12:03:22.399Z,67.75
2019-05-25T12:06:29.138Z,67.32
2019-05-25T12:09:36.255Z,67.63
2019-05-25T12:12:43.991Z,66.79
2019-05-25T12:15:50.323Z,67.29
2019-05-25T12:18:57.028Z,63.32
2019-05-25T12:22:03.376Z,63.59
2019-05-25T12:25:09.911Z,63.20
2019-05-25T12:28:34.678Z,62.05
2019-05-25T12:31:41.517Z,62.23
2019-05-25T12:34:47.910Z,61.39
2019-05-25T12:37:54.275Z,63.25
2019-05-25T12:41:00.622Z,62.56
2019-05-25T12:44:07.256Z,62.28
2019-05-25T12:47:14.577Z,63.23
2019-05-25T12:50:21.675Z,63.89
2019-05-25T12:53:28.217Z,65.31
2019-05-25T12:56:35.838Z,61.74
2019-05-25T12:59:42.146Z,61.74
2019-05-25T13:02:48.613Z,61.25
2019-05-25T13:05:54.974Z,57.63
2019-05-25T13:09:01.508Z,56.33
2019-05-25T13:12:08.824Z,56.23
2019-05-25T13:15:15.660Z,55.62
2019-05-25T13:18:22.102Z,55.72
2019-05-25T13:21:31.537Z,55.29
2019-05-25T13:24:38.056Z,57.90
2019-05-25T13:27:44.625Z,57.91
2019-05-25T13:30:51.066Z,58.04
2019-05-25T13:33:57.723Z,59.67
2019-05-25T13:37:04.149Z,60.39
2019-05-25T13:40:11.050Z,60.15
2019-05-25T13:43:17.327Z,56.48
2019-05-25T13:46:23.950Z,54.15
2019-05-25T13:49:30.348Z,55.65
2019-05-25T13:52:36.745Z,54.48
2019-05-25T13:55:43.199Z,53.84
2019-05-25T13:58:49.720Z,53.77
2019-05-25T14:01:56.109Z,53.93
2019-05-25T14:05:02.733Z,53.15
2019-05-25T14:08:09.181Z,55.85
2019-05-25T14:11:15.695Z,54.95
2019-05-25T14:14:24.410Z,56.88
2019-05-25T14:17:30.249Z,54.77
2019-05-25T14:20:36.949Z,53.42
2019-05-25T14:23:44.237Z,50.11
2019-05-25T14:26:50.978Z,49.59
2019-05-25T14:29:57.478Z,47.86
2019-05-25T14:33:03.996Z,49.71
2019-05-25T14:36:11.291Z,47.36
2019-05-25T14:39:17.716Z,47.55
2019-05-25T14:42:24.278Z,48.25
2019-05-25T14:45:30.887Z,46.52
2019-05-25T14:48:37.399Z,47.17
2019-05-25T14:51:43.851Z,47.36
2019-05-25T14:54:51.401Z,47.06
2019-05-25T14:57:58.221Z,46.22
2019-05-25T15:01:04.866Z,46.82
2019-05-25T15:04:11.330Z,47.67
2019-05-25T15:07:17.824Z,45.64
2019-05-25T15:10:24.269Z,46.62
2019-05-25T15:13:31.246Z,46.57
2019-05-25T15:16:39.389Z,46.19
2019-05-25T15:19:46.223Z,46.19
2019-05-25T15:22:52.605Z,45.99
2019-05-25T15:25:59.495Z,45.38
2019-05-25T15:29:05.907Z,45.68
2019-05-25T15:32:20.181Z,46.57
2019-05-25T15:35:20.873Z,45.90
2019-05-25T15:38:27.629Z,45.49
2019-05-25T15:41:33.982Z,46.08
2019-05-25T15:44:40.372Z,47.02
2019-05-25T15:47:46.792Z,46.81
2019-05-25T15:50:53.465Z,46.43
2019-05-25T15:54:00.017Z,45.85
2019-05-25T15:57:06.929Z,46.21
2019-05-25T16:00:15.544Z,46.93
2019-05-25T16:03:22.126Z,46.17
2019-05-25T16:06:28.615Z,46.67
2019-05-25T16:09:35.242Z,47.12
2019-05-25T16:12:44.110Z,47.17
2019-05-25T16:15:50.971Z,48.61
2019-05-25T16:18:57.343Z,46.87
2019-05-25T16:22:03.894Z,48.95
2019-05-25T16:25:10.898Z,47.85
2019-05-25T16:28:18.339Z,47.85
2019-05-25T16:31:25.852Z,49.62
2019-05-25T16:34:32.760Z,48.30
2019-05-25T16:37:39.593Z,49.24
2019-05-25T16:40:46.533Z,47.73
2019-05-25T16:43:53.080Z,49.73
2019-05-25T16:46:59.681Z,50.18
2019-05-25T16:50:06.363Z,50.46
2019-05-25T16:53:13.921Z,51.35
2019-05-25T16:56:20.370Z,51.38
2019-05-25T16:59:26.805Z,52.11
2019-05-25T17:02:33.192Z,52.42
2019-05-25T17:05:40.097Z,50.76
2019-05-25T17:08:48.325Z,50.15
2019-05-25T17:11:54.904Z,51.64
2019-05-25T17:15:01.405Z,50.27
2019-05-25T17:18:08.291Z,52.01
2019-05-25T17:21:14.753Z,51.32
2019-05-25T17:24:21.262Z,50.98
2019-05-25T17:27:28.755Z,50.23
2019-05-25T17:30:41.953Z,50.61
2019-05-25T17:33:48.356Z,50.68
2019-05-25T17:36:54.913Z,51.10
2019-05-25T17:40:01.334Z,51.45
2019-05-25T17:43:08.286Z,52.08
2019-05-25T17:46:14.735Z,52.30
2019-05-25T17:49:21.284Z,53.42
2019-05-25T17:52:27.745Z,53.30
2019-05-25T17:55:34.223Z,53.09
2019-05-25T17:58:40.512Z,53.14
2019-05-25T18:01:47.630Z,53.00
2019-05-25T18:04:54.114Z,53.28
2019-05-25T18:08:00.618Z,53.45
2019-05-25T18:11:07.101Z,53.82
2019-05-25T18:14:13.590Z,53.74
2019-05-25T18:17:21.142Z,54.01
2019-05-25T18:20:28.896Z,54.63
2019-05-25T18:23:35.309Z,54.21
2019-05-25T18:26:41.950Z,54.27
2019-05-25T18:29:48.362Z,54.36
2019-05-25T18:32:55.273Z,54.79
2019-05-25T18:36:04.430Z,54.78
2019-05-25T18:39:10.985Z,54.97
2019-05-25T18:42:17.428Z,56.75
2019-05-25T18:45:24.156Z,58.69
2019-05-25T18:48:34.271Z,59.80
2019-05-25T18:51:38.654Z,60.08
2019-05-25T18:54:45.094Z,60.36
2019-05-25T18:57:51.843Z,60.79
2019-05-25T19:00:58.570Z,61.45
2019-05-25T19:04:05.503Z,61.96
2019-05-25T19:07:11.945Z,61.96
2019-05-25T19:10:18.600Z,62.78
2019-05-25T19:13:24.952Z,62.67
2019-05-25T19:16:33.367Z,63.08
2019-05-25T19:19:40.033Z,63.58
2019-05-25T19:22:46.654Z,63.53
2019-05-25T19:25:53.079Z,63.68
2019-05-25T19:29:00.047Z,64.31
2019-05-25T19:32:06.386Z,64.41
2019-05-25T19:35:15.038Z,64.76
2019-05-25T19:38:21.396Z,65.00
2019-05-25T19:41:27.680Z,65.12
2019-05-25T19:44:36.501Z,65.04
2019-05-25T19:47:43.469Z,65.47
2019-05-25T19:50:50.232Z,67.29
2019-05-25T19:53:56.631Z,67.38
2019-05-25T19:57:03.072Z,68.62
2019-05-25T20:00:09.910Z,67.66
2019-05-25T20:03:18.812Z,67.95
2019-05-25T20:06:27.231Z,68.62
2019-05-25T20:09:33.576Z,68.17
2019-05-25T20:12:41.538Z,68.35
2019-05-25T20:15:47.979Z,68.45
2019-05-25T20:18:54.532Z,68.49
2019-05-25T20:22:00.826Z,69.42
2019-05-25T20:25:07.475Z,69.79
2019-05-25T20:28:13.940Z,71.44
2019-05-25T20:31:20.913Z,71.44
2019-05-25T20:34:27.733Z,71.26
2019-05-25T20:37:34.620Z,72.36
2019-05-25T20:40:41.108Z,72.12
2019-05-25T20:43:47.527Z,71.76
2019-05-25T20:46:54.247Z,72.52
2019-05-25T20:50:01.055Z,71.42
2019-05-25T20:53:08.009Z,71.79
2019-05-25T20:56:14.477Z,71.62
2019-05-25T20:59:20.852Z,72.70
2019-05-25T21:02:27.615Z,72.49
2019-05-25T21:05:48.970Z,73.70
2019-05-25T21:08:43.625Z,73.67
2019-05-25T21:11:50.057Z,74.06
2019-05-25T21:14:56.579Z,73.71
2019-05-25T21:18:03.290Z,73.11
2019-05-25T21:21:11.111Z,72.71
2019-05-25T21:24:17.891Z,73.10
2019-05-25T21:27:24.308Z,73.47
2019-05-25T21:30:31.919Z,73.97
2019-05-25T21:33:38.339Z,73.47
2019-05-25T21:36:46.027Z,73.53
2019-05-25T21:39:53.587Z,74.14
2019-05-25T21:43:02.580Z,74.15
2019-05-25T21:46:09.122Z,74.61
2019-05-25T21:49:16.785Z,74.59
2019-05-25T21:52:23.820Z,74.54
2019-05-25T21:55:30.181Z,74.62
2019-05-25T21:58:37.622Z,74.10
2019-05-25T22:01:46.000Z,74.22
2019-05-25T22:04:52.743Z,74.40
2019-05-25T22:07:59.511Z,73.78
2019-05-25T22:11:06.007Z,74.08
2019-05-25T22:14:12.480Z,74.08
2019-05-25T22:17:19.391Z,73.56
2019-05-25T22:20:26.554Z,73.66
2019-05-25T22:23:32.815Z,73.53
2019-05-25T22:26:39.391Z,73.00
2019-05-25T22:29:45.925Z,73.18
2019-05-25T22:32:54.164Z,72.99
2019-05-25T22:36:01.003Z,73.56
2019-05-25T22:39:08.372Z,73.13
2019-05-25T22:42:15.231Z,73.16
2019-05-25T22:45:21.958Z,73.11
2019-05-25T22:48:28.303Z,73.27
2019-05-25T22:51:35.174Z,73.79
2019-05-25T22:54:42.261Z,73.58
2019-05-25T22:57:49.031Z,73.95
2019-05-25T23:00:56.097Z,73.50
2019-05-25T23:04:02.966Z,73.70
2019-05-25T23:07:09.722Z,73.95
2019-05-25T23:10:16.217Z,73.69
2019-05-25T23:13:22.482Z,73.38
2019-05-25T23:16:29.376Z,73.96
2019-05-25T23:19:36.163Z,73.48
2019-05-25T23:22:43.000Z,74.25
2019-05-25T23:25:49.708Z,73.95
2019-05-25T23:28:56.422Z,74.47
2019-05-25T23:32:02.901Z,74.62
2019-05-25T23:35:09.466Z,75.46
2019-05-25T23:38:16.572Z,75.33
2019-05-25T23:41:23.127Z,75.33
2019-05-25T23:44:29.908Z,75.38
2019-05-25T23:47:36.428Z,75.31
2019-05-25T23:50:43.360Z,75.12
2019-05-25T23:53:49.921Z,75.06
2019-05-25T23:56:57.231Z,75.77
